createdAt,value
2019-05-26T00:01:15.223Z,6.20
2019-05-26T00:03:46.501Z,4.17
2019-05-26T00:06:20.599Z,3.00
2019-05-26T00:08:52.611Z,8.47
2019-05-26T00:11:27.858Z,3.87
2019-05-26T00:13:59.486Z,5.17
2019-05-26T00:16:33.030Z,3.73
2019-05-26T00:19:08.252Z,7.23
2019-05-26T00:21:40.605Z,4.10
2019-05-26T00:24:14.511Z,4.13
2019-05-26T00:26:46.575Z,3.77
2019-05-26T00:29:19.436Z,3.90
2019-05-26T00:31:53.940Z,5.70
2019-05-26T00:34:27.481Z,4.67
2019-05-26T00:37:03.284Z,4.67
2019-05-26T00:39:35.772Z,5.40
2019-05-26T00:42:07.632Z,3.87
2019-05-26T00:44:41.925Z,3.90
2019-05-26T00:47:14.977Z,3.87
2019-05-26T00:49:47.634Z,5.33
2019-05-26T00:52:19.703Z,4.53
2019-05-26T00:54:52.820Z,5.97
2019-05-26T00:57:25.826Z,4.30
2019-05-26T00:59:59.578Z,3.67
2019-05-26T01:02:42.071Z,3.97
2019-05-26T01:05:17.558Z,3.90
2019-05-26T01:08:05.189Z,6.83
2019-05-26T01:10:22.735Z,3.43
2019-05-26T01:12:55.932Z,3.60
2019-05-26T01:15:30.075Z,3.70
2019-05-26T01:18:03.933Z,9.90
2019-05-26T01:20:36.957Z,4.77
2019-05-26T01:23:10.743Z,4.13
2019-05-26T01:25:44.411Z,9.40
2019-05-26T01:28:17.047Z,4.37
2019-05-26T01:30:52.312Z,6.00
2019-05-26T01:33:27.541Z,3.67
2019-05-26T01:36:00.664Z,4.40
2019-05-26T01:38:32.784Z,4.30
2019-05-26T01:41:05.031Z,3.90
2019-05-26T01:43:38.990Z,11.80
2019-05-26T01:46:11.212Z,4.13
2019-05-26T01:48:44.315Z,4.00
2019-05-26T01:51:17.956Z,4.23
2019-05-26T01:53:50.275Z,3.63
2019-05-26T01:56:24.621Z,4.20
2019-05-26T01:58:56.324Z,3.50
2019-05-26T02:01:28.947Z,4.40
2019-05-26T02:04:03.592Z,4.13
2019-05-26T02:06:35.700Z,4.43
2019-05-26T02:09:11.605Z,4.10
2019-05-26T02:11:46.000Z,3.83
2019-05-26T02:14:19.955Z,4.67
2019-05-26T02:16:54.141Z,3.40
2019-05-26T02:19:27.217Z,3.57
2019-05-26T02:22:01.122Z,3.90
2019-05-26T02:24:35.859Z,3.20
2019-05-26T02:27:13.676Z,3.20
2019-05-26T02:29:46.336Z,3.47
2019-05-26T02:32:20.970Z,3.03
2019-05-26T02:34:54.164Z,3.63
2019-05-26T02:37:27.836Z,2.87
2019-05-26T02:40:01.291Z,3.23
2019-05-26T02:42:42.998Z,4.60
2019-05-26T02:45:19.086Z,3.70
2019-05-26T02:47:53.333Z,3.23
2019-05-26T02:50:27.026Z,4.07
2019-05-26T02:52:59.237Z,3.23
2019-05-26T02:55:32.396Z,3.40
2019-05-26T02:58:06.358Z,7.87
2019-05-26T03:00:45.051Z,2.47
2019-05-26T03:03:17.800Z,6.50
2019-05-26T03:05:51.196Z,2.90
2019-05-26T03:08:24.297Z,2.73
2019-05-26T03:10:59.539Z,3.77
2019-05-26T03:13:35.128Z,2.40
2019-05-26T03:16:07.662Z,3.43
2019-05-26T03:18:43.152Z,3.93
2019-05-26T03:21:15.175Z,3.47
2019-05-26T03:23:50.624Z,2.90
2019-05-26T03:26:25.131Z,7.30
2019-05-26T03:28:56.370Z,3.73
2019-05-26T03:31:32.165Z,3.87
2019-05-26T03:34:05.179Z,3.00
2019-05-26T03:36:38.673Z,3.70
2019-05-26T03:39:09.925Z,2.77
2019-05-26T03:41:41.560Z,4.13
2019-05-26T03:44:15.124Z,3.30
2019-05-26T03:46:49.571Z,3.20
2019-05-26T03:49:23.623Z,3.47
2019-05-26T03:51:57.237Z,3.20
2019-05-26T03:54:28.721Z,6.80
2019-05-26T03:57:04.143Z,3.07
2019-05-26T03:59:37.761Z,14.43
2019-05-26T04:02:09.148Z,3.17
2019-05-26T04:04:42.550Z,3.57
2019-05-26T04:07:14.881Z,3.30
2019-05-26T04:10:03.835Z,3.20
2019-05-26T04:12:22.900Z,3.73
2019-05-26T04:14:56.671Z,2.90
2019-05-26T04:17:30.993Z,3.63
2019-05-26T04:20:02.208Z,3.73
2019-05-26T04:22:44.190Z,4.07
2019-05-26T04:25:17.650Z,3.50
2019-05-26T04:27:49.715Z,3.50
2019-05-26T04:30:22.770Z,4.23
2019-05-26T04:32:56.912Z,4.77
2019-05-26T04:35:36.736Z,3.40
2019-05-26T04:38:08.627Z,4.13
2019-05-26T04:40:41.964Z,8.50
2019-05-26T04:43:16.321Z,4.20
2019-05-26T04:45:49.896Z,4.37
2019-05-26T04:48:22.906Z,13.37
2019-05-26T04:50:55.919Z,3.87
2019-05-26T04:53:28.906Z,3.83
2019-05-26T04:56:02.527Z,5.43
2019-05-26T04:58:36.283Z,5.17
2019-05-26T05:01:09.540Z,3.87
2019-05-26T05:03:42.783Z,3.97
2019-05-26T05:06:18.266Z,4.00
2019-05-26T05:08:49.843Z,4.80
2019-05-26T05:11:23.945Z,4.10
2019-05-26T05:13:55.935Z,4.63
2019-05-26T05:16:29.532Z,5.30
2019-05-26T05:19:04.427Z,5.27
2019-05-26T05:21:39.826Z,6.57
2019-05-26T05:24:13.003Z,4.77
2019-05-26T05:26:46.958Z,4.80
2019-05-26T05:29:24.289Z,5.17
2019-05-26T05:31:59.706Z,4.47
2019-05-26T05:34:37.276Z,5.17
2019-05-26T05:37:11.302Z,6.67
2019-05-26T05:39:45.558Z,5.63
2019-05-26T05:42:17.125Z,5.53
2019-05-26T05:44:50.117Z,5.93
2019-05-26T05:47:23.338Z,5.33
2019-05-26T05:49:57.490Z,5.03
2019-05-26T05:52:29.063Z,5.60
2019-05-26T05:55:11.708Z,7.57
2019-05-26T05:57:47.119Z,6.20
2019-05-26T06:00:20.031Z,6.33
2019-05-26T06:02:54.263Z,6.10
2019-05-26T06:05:26.587Z,7.33
2019-05-26T06:07:59.155Z,7.17
2019-05-26T06:10:32.273Z,6.00
2019-05-26T06:13:06.055Z,7.03
2019-05-26T06:15:40.575Z,6.37
2019-05-26T06:18:14.908Z,6.67
2019-05-26T06:20:49.009Z,6.50
2019-05-26T06:23:20.329Z,6.70
2019-05-26T06:25:54.016Z,7.67
2019-05-26T06:28:26.901Z,6.87
2019-05-26T06:30:59.342Z,18.13
2019-05-26T06:33:32.332Z,7.17
2019-05-26T06:36:16.407Z,6.27
2019-05-26T06:38:47.744Z,7.20
2019-05-26T06:41:32.758Z,6.73
2019-05-26T06:43:54.678Z,6.73
2019-05-26T06:46:26.708Z,5.87
2019-05-26T06:49:00.377Z,6.10
2019-05-26T06:51:33.956Z,6.30
2019-05-26T06:54:17.819Z,6.33
2019-05-26T06:56:50.683Z,6.50
2019-05-26T06:59:25.054Z,6.63
2019-05-26T07:01:56.606Z,6.03
2019-05-26T07:04:29.475Z,6.07
2019-05-26T07:07:04.438Z,7.13
2019-05-26T07:09:38.288Z,7.83
2019-05-26T07:12:12.547Z,8.77
2019-05-26T07:14:47.557Z,6.53
2019-05-26T07:17:21.552Z,6.40
2019-05-26T07:19:55.410Z,6.30
2019-05-26T07:22:31.255Z,5.90
2019-05-26T07:25:02.468Z,5.60
2019-05-26T07:27:47.567Z,6.60
2019-05-26T07:30:25.571Z,6.20
2019-05-26T07:33:02.610Z,6.23
2019-05-26T07:35:36.686Z,5.90
2019-05-26T07:38:09.921Z,5.93
2019-05-26T07:40:41.504Z,4.90
2019-05-26T07:43:16.423Z,5.93
2019-05-26T07:45:48.128Z,8.20
2019-05-26T07:48:20.545Z,6.57
2019-05-26T07:50:52.092Z,6.33
2019-05-26T07:53:24.154Z,8.87
2019-05-26T07:55:58.332Z,5.60
2019-05-26T07:58:31.581Z,5.63
2019-05-26T08:01:05.749Z,6.90
2019-05-26T08:03:41.528Z,6.50
2019-05-26T08:06:14.066Z,7.27
2019-05-26T08:08:48.526Z,5.57
2019-05-26T08:11:20.420Z,5.73
2019-05-26T08:13:56.527Z,6.17
2019-05-26T08:16:29.907Z,6.30
2019-05-26T08:19:03.552Z,6.30
2019-05-26T08:21:36.688Z,6.00
2019-05-26T08:24:10.977Z,6.30
2019-05-26T08:26:43.725Z,6.23
2019-05-26T08:29:18.103Z,5.80
2019-05-26T08:31:50.825Z,7.80
2019-05-26T08:34:23.975Z,11.33
2019-05-26T08:36:57.537Z,6.43
2019-05-26T08:39:29.228Z,5.50
2019-05-26T08:42:02.799Z,6.30
2019-05-26T08:44:34.995Z,5.93
2019-05-26T08:47:08.049Z,12.50
2019-05-26T08:49:39.562Z,5.67
2019-05-26T08:52:14.119Z,6.40
2019-05-26T08:54:48.775Z,5.40
2019-05-26T08:57:23.698Z,5.60
2019-05-26T08:59:57.124Z,6.03
2019-05-26T09:02:42.733Z,6.07
2019-05-26T09:05:16.847Z,6.20
2019-05-26T09:07:49.252Z,5.43
2019-05-26T09:10:22.579Z,5.70
2019-05-26T09:13:01.234Z,5.30
2019-05-26T09:15:29.291Z,5.50
2019-05-26T09:18:04.169Z,5.43
2019-05-26T09:20:39.852Z,5.40
2019-05-26T09:23:14.200Z,6.03
2019-05-26T09:25:46.973Z,5.43
2019-05-26T09:28:18.761Z,5.20
2019-05-26T09:30:50.168Z,5.60
2019-05-26T09:33:23.440Z,4.87
2019-05-26T09:35:57.187Z,6.20
2019-05-26T09:38:31.476Z,5.10
2019-05-26T09:41:05.203Z,5.10
2019-05-26T09:43:40.191Z,5.37
2019-05-26T09:46:15.974Z,5.27
2019-05-26T09:48:51.339Z,5.73
2019-05-26T09:51:25.635Z,5.90
2019-05-26T09:54:02.033Z,5.70
2019-05-26T09:56:36.686Z,4.80
2019-05-26T09:59:10.191Z,4.87
2019-05-26T10:01:45.761Z,4.67
2019-05-26T10:04:18.950Z,5.77
2019-05-26T10:06:50.456Z,5.83
2019-05-26T10:09:23.449Z,5.47
2019-05-26T10:11:57.607Z,5.17
2019-05-26T10:14:29.442Z,5.57
2019-05-26T10:17:03.446Z,5.60
2019-05-26T10:19:37.707Z,4.77
2019-05-26T10:22:14.439Z,4.57
2019-05-26T10:24:46.579Z,5.10
2019-05-26T10:27:20.363Z,7.00
2019-05-26T10:29:53.639Z,6.00
2019-05-26T10:32:27.690Z,5.40
2019-05-26T10:34:59.480Z,10.83
2019-05-26T10:37:44.028Z,5.70
2019-05-26T10:40:18.815Z,5.20
2019-05-26T10:42:51.822Z,5.03
2019-05-26T10:45:24.674Z,4.87
2019-05-26T10:47:56.397Z,4.50
2019-05-26T10:50:31.541Z,6.60
2019-05-26T10:53:05.674Z,5.40
2019-05-26T10:55:41.460Z,5.83
2019-05-26T10:58:13.558Z,5.23
2019-05-26T11:00:49.167Z,4.90
2019-05-26T11:03:20.587Z,7.93
2019-05-26T11:05:54.825Z,4.20
2019-05-26T11:08:28.289Z,4.53
2019-05-26T11:11:00.802Z,5.20
2019-05-26T11:13:32.724Z,5.73
2019-05-26T11:16:06.641Z,6.17
2019-05-26T11:18:40.086Z,5.70
2019-05-26T11:21:13.700Z,5.00
2019-05-26T11:24:00.967Z,5.10
2019-05-26T11:26:32.751Z,4.60
2019-05-26T11:29:07.169Z,5.70
2019-05-26T11:31:38.689Z,5.00
2019-05-26T11:34:14.711Z,4.50
2019-05-26T11:36:47.774Z,4.40
2019-05-26T11:39:19.823Z,5.20
2019-05-26T11:42:10.572Z,5.40
2019-05-26T11:44:30.985Z,9.30
2019-05-26T11:47:04.531Z,4.87
2019-05-26T11:49:36.059Z,4.30
2019-05-26T11:52:08.774Z,4.33
2019-05-26T11:54:41.988Z,5.50
2019-05-26T11:57:15.674Z,7.23
2019-05-26T11:59:47.506Z,4.40
2019-05-26T12:02:20.539Z,4.73
2019-05-26T12:04:55.538Z,5.20
2019-05-26T12:07:26.812Z,4.10
2019-05-26T12:09:58.636Z,4.63
2019-05-26T12:12:32.136Z,4.83
2019-05-26T12:15:16.836Z,4.30
2019-05-26T12:17:49.114Z,11.00
2019-05-26T12:20:20.804Z,4.40
2019-05-26T12:22:53.895Z,4.10
2019-05-26T12:25:27.084Z,4.33
2019-05-26T12:28:02.727Z,4.93
2019-05-26T12:30:36.131Z,9.27
2019-05-26T12:33:10.571Z,4.50
2019-05-26T12:35:46.339Z,5.43
2019-05-26T12:38:18.146Z,4.53
2019-05-26T12:40:54.327Z,4.63
2019-05-26T12:43:28.478Z,4.10
2019-05-26T12:46:00.465Z,3.53
2019-05-26T12:48:33.213Z,20.47
2019-05-26T12:51:06.204Z,8.10
2019-05-26T12:53:39.225Z,4.67
2019-05-26T12:56:15.798Z,4.57
2019-05-26T12:58:49.127Z,4.00
2019-05-26T13:01:20.482Z,4.50
2019-05-26T13:03:56.362Z,5.40
2019-05-26T13:06:31.007Z,4.23
2019-05-26T13:09:02.363Z,3.60
2019-05-26T13:11:37.246Z,4.00
2019-05-26T13:14:09.642Z,4.33
2019-05-26T13:16:42.308Z,5.43
2019-05-26T13:19:16.289Z,3.83
2019-05-26T13:21:48.578Z,3.90
2019-05-26T13:24:20.546Z,4.37
2019-05-26T13:27:01.553Z,4.47
2019-05-26T13:29:50.600Z,4.20
2019-05-26T13:32:24.979Z,3.70
2019-05-26T13:35:18.518Z,3.70
2019-05-26T13:37:53.956Z,3.87
2019-05-26T13:40:29.524Z,5.17
2019-05-26T13:43:02.192Z,6.23
2019-05-26T13:45:37.500Z,6.73
2019-05-26T13:48:11.829Z,6.03
2019-05-26T13:50:49.307Z,6.40
2019-05-26T13:53:21.043Z,6.10
2019-05-26T13:55:54.524Z,5.80
2019-05-26T13:58:29.582Z,6.07
2019-05-26T14:01:15.554Z,10.30
2019-05-26T14:03:47.590Z,7.97
2019-05-26T14:06:20.726Z,5.40
2019-05-26T14:09:10.627Z,5.73
2019-05-26T14:11:44.335Z,8.73
2019-05-26T14:14:18.375Z,6.47
2019-05-26T14:16:53.129Z,5.70
2019-05-26T14:19:28.647Z,5.57
2019-05-26T14:22:04.349Z,5.10
2019-05-26T14:24:50.942Z,6.80
2019-05-26T14:27:15.135Z,6.50
2019-05-26T14:29:47.706Z,6.60
2019-05-26T14:32:21.170Z,6.30
2019-05-26T14:34:53.716Z,6.33
2019-05-26T14:37:29.485Z,7.07
2019-05-26T14:40:15.748Z,8.37
2019-05-26T14:42:49.837Z,8.67
2019-05-26T14:45:21.278Z,7.07
2019-05-26T14:47:53.581Z,8.90
2019-05-26T14:50:26.677Z,7.43
2019-05-26T14:53:00.063Z,7.53
2019-05-26T14:55:34.275Z,14.40
2019-05-26T14:58:15.871Z,11.93
2019-05-26T15:00:45.778Z,7.67
2019-05-26T15:03:19.702Z,7.47
2019-05-26T15:06:05.840Z,8.60
2019-05-26T15:08:42.020Z,7.07
2019-05-26T15:11:17.626Z,8.40
2019-05-26T15:13:50.570Z,8.00
2019-05-26T15:16:25.708Z,5.50
2019-05-26T15:18:59.726Z,5.53
2019-05-26T15:21:34.557Z,6.07
2019-05-26T15:24:08.816Z,6.03
2019-05-26T15:26:41.897Z,8.20
2019-05-26T15:29:15.837Z,6.77
2019-05-26T15:31:48.962Z,6.33
2019-05-26T15:34:20.997Z,6.30
2019-05-26T15:36:53.878Z,9.23
2019-05-26T15:39:32.048Z,6.63
2019-05-26T15:42:08.200Z,5.77
2019-05-26T15:44:39.801Z,5.87
2019-05-26T15:47:14.608Z,4.43
2019-05-26T15:49:47.073Z,6.43
2019-05-26T15:52:22.615Z,5.47
2019-05-26T15:54:56.874Z,6.80
2019-05-26T15:57:29.167Z,6.10
2019-05-26T16:00:14.648Z,5.60
2019-05-26T16:02:46.908Z,5.27
2019-05-26T16:05:22.844Z,5.93
2019-05-26T16:07:57.009Z,5.10
2019-05-26T16:10:30.329Z,5.53
2019-05-26T16:13:04.963Z,5.10
2019-05-26T16:15:38.200Z,5.10
2019-05-26T16:18:13.688Z,4.43
2019-05-26T16:20:46.675Z,5.87
2019-05-26T16:23:19.101Z,5.73
2019-05-26T16:25:51.057Z,6.07
2019-05-26T16:28:24.365Z,5.57
2019-05-26T16:30:58.912Z,6.17
2019-05-26T16:33:30.146Z,4.87
2019-05-26T16:36:04.409Z,6.50
2019-05-26T16:38:36.293Z,4.87
2019-05-26T16:41:07.503Z,4.43
2019-05-26T16:43:41.119Z,3.97
2019-05-26T16:46:15.230Z,4.57
2019-05-26T16:48:48.267Z,5.70
2019-05-26T16:51:20.275Z,4.83
2019-05-26T16:53:55.941Z,4.60
2019-05-26T16:56:27.556Z,4.27
2019-05-26T16:59:01.151Z,9.93
2019-05-26T17:01:38.092Z,4.97
2019-05-26T17:04:14.201Z,6.10
2019-05-26T17:06:48.368Z,10.30
2019-05-26T17:09:22.351Z,5.90
2019-05-26T17:11:55.831Z,5.50
2019-05-26T17:14:27.757Z,5.00
2019-05-26T17:17:14.175Z,5.50
2019-05-26T17:19:37.028Z,6.00
2019-05-26T17:22:09.025Z,4.80
2019-05-26T17:24:43.575Z,4.23
2019-05-26T17:27:16.696Z,4.93
2019-05-26T17:29:50.328Z,5.17
2019-05-26T17:32:21.543Z,3.77
2019-05-26T17:35:16.641Z,4.50
2019-05-26T17:38:09.834Z,3.87
2019-05-26T17:40:43.451Z,4.20
2019-05-26T17:43:24.828Z,3.60
2019-05-26T17:46:11.220Z,4.53
2019-05-26T17:49:17.377Z,4.47
2019-05-26T17:52:09.319Z,3.70
2019-05-26T17:54:42.559Z,5.93
2019-05-26T17:57:14.645Z,133.63
2019-05-26T17:59:47.488Z,114.17
2019-05-26T18:02:20.742Z,114.83
2019-05-26T18:04:54.918Z,11.50
2019-05-26T18:07:28.869Z,5.13
2019-05-26T18:10:02.010Z,5.27
2019-05-26T18:12:41.534Z,4.77
2019-05-26T18:15:18.360Z,6.00
2019-05-26T18:17:52.023Z,7.13
2019-05-26T18:20:26.591Z,5.30
2019-05-26T18:23:01.041Z,6.50
2019-05-26T18:25:33.690Z,5.70
2019-05-26T18:28:06.761Z,7.13
2019-05-26T18:30:41.393Z,8.77
2019-05-26T18:33:12.987Z,9.73
2019-05-26T18:35:47.447Z,4.93
2019-05-26T18:38:18.691Z,5.97
2019-05-26T18:40:51.679Z,5.27
2019-05-26T18:43:24.646Z,6.10
2019-05-26T18:45:59.541Z,5.93
2019-05-26T18:48:31.533Z,5.13
2019-05-26T18:51:05.006Z,5.83
2019-05-26T18:53:37.983Z,5.53
2019-05-26T18:56:10.897Z,5.63
2019-05-26T18:58:45.616Z,6.90
2019-05-26T19:01:21.331Z,6.00
2019-05-26T19:03:52.929Z,6.20
2019-05-26T19:06:27.626Z,7.43
2019-05-26T19:09:00.836Z,6.23
2019-05-26T19:11:34.146Z,5.80
2019-05-26T19:14:06.984Z,5.47
2019-05-26T19:16:39.042Z,5.30
2019-05-26T19:19:12.008Z,5.73
2019-05-26T19:21:44.247Z,7.63
2019-05-26T19:24:17.090Z,9.90
2019-05-26T19:26:50.062Z,7.20
2019-05-26T19:29:22.788Z,7.50
2019-05-26T19:31:56.163Z,6.97
2019-05-26T19:34:40.083Z,7.40
2019-05-26T19:37:15.564Z,9.33
2019-05-26T19:39:58.490Z,7.90
2019-05-26T19:42:30.940Z,6.60
2019-05-26T19:45:14.914Z,6.40
2019-05-26T19:47:59.774Z,7.30
2019-05-26T19:50:32.416Z,8.00
2019-05-26T19:53:06.472Z,6.60
2019-05-26T19:55:41.279Z,6.40
2019-05-26T19:58:17.210Z,5.73
2019-05-26T20:00:52.742Z,18.67
2019-05-26T20:03:24.108Z,9.40
2019-05-26T20:06:00.149Z,5.77
2019-05-26T20:08:45.599Z,5.63
2019-05-26T20:11:18.408Z,7.70
2019-05-26T20:13:52.011Z,7.13
2019-05-26T20:16:30.397Z,8.10
2019-05-26T20:19:02.055Z,6.57
2019-05-26T20:21:37.881Z,12.20
2019-05-26T20:24:12.290Z,7.23
2019-05-26T20:26:45.263Z,7.00
2019-05-26T20:29:18.282Z,6.67
2019-05-26T20:31:55.498Z,8.70
2019-05-26T20:34:31.533Z,6.60
2019-05-26T20:37:05.307Z,9.20
2019-05-26T20:39:38.378Z,8.37
2019-05-26T20:42:12.357Z,7.70
2019-05-26T20:44:45.402Z,6.73
2019-05-26T20:47:20.277Z,6.77
2019-05-26T20:49:54.482Z,6.20
2019-05-26T20:52:27.506Z,5.93
2019-05-26T20:55:01.597Z,5.77
2019-05-26T20:57:44.034Z,5.77
2019-05-26T21:00:18.291Z,6.33
2019-05-26T21:02:51.395Z,5.87
2019-05-26T21:05:37.837Z,6.60
2019-05-26T21:08:10.554Z,5.93
2019-05-26T21:10:44.228Z,11.77
2019-05-26T21:13:33.531Z,5.50
2019-05-26T21:16:28.006Z,6.23
2019-05-26T21:19:36.521Z,7.57
2019-05-26T21:22:09.528Z,6.30
2019-05-26T21:24:41.717Z,6.17
2019-05-26T21:27:41.495Z,11.30
2019-05-26T21:30:19.859Z,6.60
2019-05-26T21:33:07.707Z,13.40
2019-05-26T21:35:52.097Z,8.83
2019-05-26T21:38:25.092Z,7.57
2019-05-26T21:40:59.543Z,7.07
2019-05-26T21:43:33.546Z,7.93
2019-05-26T21:46:06.616Z,7.87
2019-05-26T21:48:39.646Z,9.33
2019-05-26T21:51:12.794Z,17.37
2019-05-26T21:53:46.964Z,7.50
2019-05-26T21:56:18.864Z,8.33
2019-05-26T21:58:53.477Z,7.40
2019-05-26T22:01:26.461Z,6.73
2019-05-26T22:03:59.922Z,10.13
2019-05-26T22:06:34.684Z,6.80
2019-05-26T22:09:09.778Z,7.10
2019-05-26T22:11:43.824Z,7.33
2019-05-26T22:14:16.716Z,7.87
2019-05-26T22:16:49.696Z,6.40
2019-05-26T22:19:21.293Z,6.30
2019-05-26T22:21:53.860Z,7.17
2019-05-26T22:24:25.222Z,6.70
2019-05-26T22:27:00.583Z,7.90
2019-05-26T22:29:33.054Z,7.50
2019-05-26T22:32:05.983Z,8.83
2019-05-26T22:34:39.116Z,10.07
2019-05-26T22:37:14.658Z,8.50
2019-05-26T22:39:48.730Z,9.87
2019-05-26T22:42:22.094Z,10.73
2019-05-26T22:44:56.451Z,10.07
2019-05-26T22:47:28.723Z,10.17
2019-05-26T22:50:02.549Z,9.13
2019-05-26T22:52:45.324Z,9.50
2019-05-26T22:55:20.155Z,9.43
2019-05-26T22:57:51.990Z,12.63
2019-05-26T23:00:26.799Z,9.57
2019-05-26T23:02:58.113Z,12.03
2019-05-26T23:05:31.509Z,11.10
2019-05-26T23:08:04.094Z,10.47
2019-05-26T23:10:39.649Z,9.67
2019-05-26T23:13:12.859Z,9.20
2019-05-26T23:15:46.735Z,15.00
2019-05-26T23:18:19.158Z,9.60
2019-05-26T23:20:50.510Z,9.77
2019-05-26T23:23:21.974Z,15.93
2019-05-26T23:25:56.041Z,9.60
2019-05-26T23:28:31.226Z,9.00
2019-05-26T23:31:05.570Z,8.20
2019-05-26T23:33:38.351Z,8.30
2019-05-26T23:36:11.889Z,8.40
2019-05-26T23:38:43.263Z,8.13
2019-05-26T23:41:16.263Z,8.47
2019-05-26T23:43:49.260Z,8.03
2019-05-26T23:46:21.385Z,8.27
2019-05-26T23:48:56.832Z,8.53
2019-05-26T23:51:29.108Z,8.87
2019-05-26T23:54:02.264Z,9.07
2019-05-26T23:56:36.331Z,8.23
2019-05-26T23:59:10.264Z,8.50
